Time;durP1;ratioP1;P1;durP2;ratioP2;P2;SDS_P1;SDS_P2;PMS_P1;PMS_P2;Temp;Humidity;BMP_temperature;BMP_pressure;BME280_temperature;BME280_humidity;BME280_pressure;Samples;Min_cycle;Max_cycle;Signal;HPM_P1;HPM_P2
2021/08/17 00:01:46;;;;;;;9.23;2.10;;;14.30;97.80;;;;;;5095122;28;20039;-84
2021/08/17 00:04:12;;;;;;;3.17;1.52;;;14.30;97.70;;;;;;5093926;28;20467;-84
2021/08/17 00:06:38;;;;;;;4.18;1.80;;;14.30;97.70;;;;;;5092432;28;20055;-84
2021/08/17 00:09:03;;;;;;;6.80;1.80;;;14.30;97.70;;;;;;5095850;28;20028;-84
2021/08/17 00:11:29;;;;;;;4.88;2.00;;;14.30;97.70;;;;;;5098557;28;20328;-84
2021/08/17 00:13:54;;;;;;;6.38;1.67;;;14.30;97.60;;;;;;5098353;28;20447;-82
2021/08/17 00:16:20;;;;;;;7.00;1.70;;;14.30;97.50;;;;;;5099289;28;20119;-82
2021/08/17 00:18:45;;;;;;;5.32;2.10;;;14.30;97.30;;;;;;5092099;28;20097;-82
2021/08/17 00:21:13;;;;;;;11.18;2.00;;;14.20;97.30;;;;;;5089985;28;20032;-82
2021/08/17 00:23:39;;;;;;;12.40;2.78;;;14.20;97.10;;;;;;5106270;28;20401;-83
2021/08/17 00:26:04;;;;;;;5.30;2.05;;;14.10;97.10;;;;;;5092077;28;20032;-82
2021/08/17 00:28:30;;;;;;;6.28;2.92;;;14.10;97.10;;;;;;5092941;28;20062;-83
2021/08/17 00:30:55;;;;;;;5.30;2.40;;;14.10;96.70;;;;;;5099488;28;20178;-82
2021/08/17 00:33:21;;;;;;;7.38;1.83;;;14.00;97.00;;;;;;5084208;28;20272;-82
2021/08/17 00:35:46;;;;;;;4.07;1.80;;;14.00;97.00;;;;;;5088523;28;20119;-82
2021/08/17 00:38:12;;;;;;;3.40;1.70;;;14.00;97.00;;;;;;5095167;28;20044;-83
2021/08/17 00:40:37;;;;;;;8.43;2.72;;;13.90;96.90;;;;;;5095728;28;20032;-82
2021/08/17 00:43:03;;;;;;;4.63;1.73;;;14.00;96.90;;;;;;5095241;28;20079;-83
2021/08/17 00:45:29;;;;;;;5.50;1.95;;;13.90;96.70;;;;;;5097785;28;20036;-82
2021/08/17 00:47:56;;;;;;;6.72;2.47;;;13.90;96.90;;;;;;5086769;28;20129;-83
2021/08/17 00:50:23;;;;;;;5.07;2.00;;;13.90;97.00;;;;;;5105943;28;20028;-82
2021/08/17 00:52:49;;;;;;;4.32;1.67;;;13.90;97.00;;;;;;5087772;28;20071;-82
2021/08/17 00:55:15;;;;;;;5.05;1.98;;;13.90;96.60;;;;;;5097140;28;20105;-82
2021/08/17 00:57:41;;;;;;;4.25;2.10;;;14.00;96.80;;;;;;5098824;28;20064;-84
2021/08/17 01:00:09;;;;;;;4.78;2.17;;;13.90;96.70;;;;;;5094728;28;20479;-82
2021/08/17 01:02:34;;;;;;;4.07;2.00;;;14.00;96.50;;;;;;5099560;28;20048;-85
2021/08/17 01:05:00;;;;;;;5.32;2.05;;;13.90;96.80;;;;;;5106592;28;20593;-82
2021/08/17 01:07:28;;;;;;;4.72;2.50;;;13.90;96.60;;;;;;5086523;28;20028;-81
2021/08/17 01:09:53;;;;;;;5.78;2.30;;;13.90;97.00;;;;;;5095151;28;20050;-82
2021/08/17 01:12:19;;;;;;;9.68;2.45;;;13.90;96.60;;;;;;5101689;28;20315;-82
2021/08/17 01:14:44;;;;;;;5.53;2.20;;;13.90;96.40;;;;;;5095884;28;20042;-81
2021/08/17 01:17:10;;;;;;;5.70;2.33;;;14.00;96.60;;;;;;5100025;28;20032;-83
2021/08/17 01:19:36;;;;;;;5.60;2.50;;;14.00;96.60;;;;;;5096132;28;20040;-81
2021/08/17 01:22:03;;;;;;;4.35;2.08;;;14.00;96.20;;;;;;5089372;28;20342;-83
2021/08/17 01:24:28;;;;;;;3.92;2.13;;;14.00;96.10;;;;;;5105860;28;20044;-84
2021/08/17 01:26:54;;;;;;;7.10;2.38;;;14.00;96.00;;;;;;5108314;28;20172;-83
2021/08/17 01:29:21;;;;;;;6.72;2.55;;;13.90;96.20;;;;;;5091217;28;20039;-83
2021/08/17 01:31:47;;;;;;;3.90;2.38;;;13.90;96.40;;;;;;5100704;28;20043;-84
2021/08/17 01:34:12;;;;;;;2.80;1.90;;;13.90;96.10;;;;;;5099118;28;20044;-82
2021/08/17 01:36:38;;;;;;;8.70;2.28;;;14.00;96.00;;;;;;5085460;28;20044;-83
2021/08/17 01:39:04;;;;;;;3.15;2.40;;;14.10;96.10;;;;;;5089247;28;20044;-83
2021/08/17 01:41:30;;;;;;;7.05;2.45;;;14.10;95.90;;;;;;5096703;28;20036;-83
2021/08/17 01:43:55;;;;;;;4.80;2.30;;;14.10;96.00;;;;;;5098314;28;20031;-83
2021/08/17 01:46:21;;;;;;;5.45;2.95;;;14.00;95.60;;;;;;5091373;28;20039;-83
2021/08/17 01:48:47;;;;;;;3.90;2.38;;;14.00;95.90;;;;;;5094678;28;20429;-83
2021/08/17 01:51:12;;;;;;;7.32;2.28;;;14.00;95.90;;;;;;5095506;28;20092;-83
2021/08/17 01:53:38;;;;;;;7.43;2.60;;;14.00;95.90;;;;;;5092798;28;20040;-82
2021/08/17 01:56:06;;;;;;;4.03;2.03;;;14.00;95.80;;;;;;5100044;28;20113;-83
2021/08/17 01:58:32;;;;;;;4.93;2.25;;;13.90;96.10;;;;;;5090003;28;20658;-83
2021/08/17 02:00:57;;;;;;;5.35;3.08;;;13.90;96.10;;;;;;5098051;28;20114;-83
2021/08/17 02:03:23;;;;;;;5.82;2.40;;;14.00;95.90;;;;;;5085786;28;20412;-83
2021/08/17 02:05:48;;;;;;;6.20;2.17;;;14.00;95.90;;;;;;5091079;28;20036;-82
2021/08/17 02:08:13;;;;;;;6.53;2.50;;;13.90;95.80;;;;;;5102170;28;20063;-83
2021/08/17 02:10:40;;;;;;;7.35;2.53;;;13.90;96.00;;;;;;5090571;28;20110;-82
2021/08/17 02:13:05;;;;;;;6.22;2.55;;;13.90;95.90;;;;;;5082065;28;20043;-83
2021/08/17 02:15:32;;;;;;;3.92;2.03;;;13.90;95.90;;;;;;5090646;28;20040;-83
2021/08/17 02:17:58;;;;;;;8.43;2.42;;;13.80;95.90;;;;;;5096997;28;20044;-83
2021/08/17 02:20:24;;;;;;;4.60;2.42;;;13.90;96.30;;;;;;5105493;28;20334;-83
2021/08/17 02:22:49;;;;;;;6.65;2.72;;;13.80;95.90;;;;;;5090840;28;20129;-83
2021/08/17 02:25:15;;;;;;;11.23;2.45;;;13.90;95.80;;;;;;5096148;28;20047;-83
2021/08/17 02:27:41;;;;;;;3.45;1.90;;;13.80;95.80;;;;;;5091751;28;20058;-83
2021/08/17 02:30:07;;;;;;;6.10;2.20;;;13.90;95.80;;;;;;5088869;28;20028;-83
2021/08/17 02:32:33;;;;;;;3.10;2.25;;;13.80;95.70;;;;;;5100260;28;20044;-83
2021/08/17 02:34:59;;;;;;;4.05;2.10;;;13.80;96.00;;;;;;5091610;28;20046;-83
2021/08/17 02:37:24;;;;;;;4.65;2.40;;;13.80;95.90;;;;;;5101818;28;20090;-83
2021/08/17 02:39:50;;;;;;;8.43;2.08;;;13.80;95.90;;;;;;5100013;28;20043;-84
2021/08/17 02:42:16;;;;;;;5.13;2.47;;;13.90;95.90;;;;;;5103745;28;20043;-83
2021/08/17 02:44:42;;;;;;;3.80;2.03;;;13.90;95.80;;;;;;5109724;28;20032;-83
2021/08/17 02:47:08;;;;;;;5.82;2.67;;;13.80;95.70;;;;;;5105548;28;20493;-82
2021/08/17 02:49:33;;;;;;;8.75;2.33;;;13.80;96.10;;;;;;5102673;28;20040;-83
2021/08/17 02:52:03;;;;;;;5.53;2.53;;;13.80;95.90;;;;;;5101304;28;20036;-83
2021/08/17 02:54:29;;;;;;;9.77;2.50;;;13.80;96.00;;;;;;5090729;28;20032;-83
2021/08/17 02:56:55;;;;;;;4.53;2.40;;;13.80;96.00;;;;;;5091242;28;20051;-83
2021/08/17 02:59:20;;;;;;;3.70;2.05;;;13.80;95.90;;;;;;5093898;28;20109;-83
2021/08/17 03:01:46;;;;;;;8.00;2.08;;;13.90;96.10;;;;;;5100895;28;20409;-84
2021/08/17 03:04:11;;;;;;;4.13;2.40;;;13.80;96.00;;;;;;5096960;28;20040;-83
2021/08/17 03:06:36;;;;;;;4.05;1.88;;;13.90;96.10;;;;;;5092615;28;20052;-84
2021/08/17 03:09:02;;;;;;;5.45;2.10;;;13.90;96.10;;;;;;5099250;28;20266;-84
2021/08/17 03:11:27;;;;;;;5.22;1.85;;;13.90;95.90;;;;;;5089207;28;20040;-83
2021/08/17 03:13:53;;;;;;;8.10;2.58;;;13.90;95.90;;;;;;5082367;28;20106;-84
2021/08/17 03:16:19;;;;;;;5.97;2.33;;;13.90;96.50;;;;;;5092806;28;20031;-84
2021/08/17 03:18:44;;;;;;;3.67;1.92;;;13.90;96.00;;;;;;5091667;28;20041;-84
2021/08/17 03:21:10;;;;;;;4.63;2.05;;;13.90;95.90;;;;;;5107528;28;20041;-83
2021/08/17 03:23:35;;;;;;;4.97;2.10;;;14.00;95.80;;;;;;5106408;28;20036;-83
2021/08/17 03:26:01;;;;;;;4.82;2.28;;;14.00;95.90;;;;;;5107304;28;20035;-83
2021/08/17 03:28:26;;;;;;;6.15;2.22;;;14.10;96.00;;;;;;5111591;28;20359;-84
2021/08/17 03:30:52;;;;;;;5.70;1.92;;;14.10;95.90;;;;;;5096325;28;20043;-83
2021/08/17 03:33:17;;;;;;;5.18;2.25;;;14.00;95.90;;;;;;5095819;28;20047;-83
2021/08/17 03:35:43;;;;;;;4.50;2.00;;;14.10;96.10;;;;;;5099644;28;20036;-83
2021/08/17 03:38:08;;;;;;;2.28;1.70;;;14.10;95.80;;;;;;5094840;28;20755;-83
2021/08/17 03:40:34;;;;;;;6.78;2.40;;;14.10;96.00;;;;;;5102824;28;20084;-83
2021/08/17 03:43:00;;;;;;;6.35;2.03;;;14.20;95.80;;;;;;5102530;28;20035;-83
2021/08/17 03:45:25;;;;;;;5.30;1.75;;;14.10;96.00;;;;;;5096855;28;20374;-84
2021/08/17 03:47:51;;;;;;;4.18;1.92;;;14.20;96.00;;;;;;5091940;28;20039;-83
2021/08/17 03:50:18;;;;;;;4.35;2.20;;;14.10;96.10;;;;;;5097573;28;20065;-83
2021/08/17 03:52:44;;;;;;;4.93;2.08;;;14.20;96.10;;;;;;5092434;28;20036;-83
2021/08/17 03:55:11;;;;;;;3.88;2.08;;;14.20;95.80;;;;;;5110186;28;20039;-83
2021/08/17 03:57:37;;;;;;;2.72;2.05;;;14.20;95.70;;;;;;5099977;28;20041;-83
2021/08/17 04:00:05;;;;;;;3.65;1.75;;;14.20;95.90;;;;;;5089154;28;20302;-83
2021/08/17 04:02:30;;;;;;;8.07;2.33;;;14.20;96.10;;;;;;5105203;28;20063;-83
2021/08/17 04:04:55;;;;;;;4.57;2.63;;;14.20;96.10;;;;;;5098475;28;20059;-83
2021/08/17 04:07:21;;;;;;;5.55;2.78;;;14.20;96.10;;;;;;5098936;28;20092;-84
2021/08/17 04:09:46;;;;;;;3.75;1.80;;;14.30;95.90;;;;;;5092936;28;20112;-83
2021/08/17 04:12:12;;;;;;;2.85;1.77;;;14.30;95.90;;;;;;5100721;28;20040;-83
2021/08/17 04:14:38;;;;;;;5.45;2.33;;;14.30;96.00;;;;;;5089759;28;20394;-85
2021/08/17 04:17:03;;;;;;;4.05;1.73;;;14.30;96.00;;;;;;5096337;28;20119;-84
2021/08/17 04:19:29;;;;;;;5.35;1.95;;;14.30;95.80;;;;;;5095245;28;20047;-84
2021/08/17 04:21:54;;;;;;;6.60;2.58;;;14.30;95.90;;;;;;5087378;28;20044;-85
2021/08/17 04:24:21;;;;;;;5.70;2.30;;;14.40;95.90;;;;;;5081391;28;20389;-85
2021/08/17 04:26:46;;;;;;;6.03;2.28;;;14.30;95.90;;;;;;5103647;28;20032;-83
2021/08/17 04:29:12;;;;;;;4.68;2.13;;;14.30;95.90;;;;;;5092332;28;20043;-84
2021/08/17 04:31:37;;;;;;;6.47;2.35;;;14.30;95.90;;;;;;5091767;28;20037;-84
2021/08/17 04:34:03;;;;;;;4.05;1.80;;;14.30;95.90;;;;;;5084963;28;20032;-84
2021/08/17 04:36:29;;;;;;;4.88;2.22;;;14.30;96.40;;;;;;5116245;27;20070;-84
2021/08/17 04:38:54;;;;;;;5.10;1.98;;;14.30;96.20;;;;;;5089015;28;20114;-83
2021/08/17 04:41:20;;;;;;;4.40;2.17;;;14.30;96.20;;;;;;5099780;28;20074;-83
2021/08/17 04:43:46;;;;;;;3.13;1.83;;;14.30;96.30;;;;;;5098783;28;20100;-83
2021/08/17 04:46:12;;;;;;;5.50;2.30;;;14.40;96.10;;;;;;5096697;28;20058;-83
2021/08/17 04:48:37;;;;;;;10.65;2.72;;;14.40;96.10;;;;;;5110508;28;20126;-83
2021/08/17 04:51:03;;;;;;;3.63;2.13;;;14.50;96.00;;;;;;5097912;28;20028;-84
2021/08/17 04:53:29;;;;;;;3.92;1.95;;;14.50;96.00;;;;;;5089512;28;20070;-83
2021/08/17 04:55:55;;;;;;;3.42;1.60;;;14.50;95.90;;;;;;5084627;28;20033;-84
2021/08/17 04:58:20;;;;;;;4.28;1.88;;;14.50;95.80;;;;;;5104544;28;20039;-83
2021/08/17 05:00:47;;;;;;;6.95;2.30;;;14.50;96.00;;;;;;5099362;28;20047;-83
2021/08/17 05:03:13;;;;;;;4.53;2.30;;;14.50;96.00;;;;;;5094638;28;20302;-84
2021/08/17 05:05:39;;;;;;;5.07;2.03;;;14.50;96.10;;;;;;5087915;28;20046;-83
2021/08/17 05:08:06;;;;;;;4.57;1.85;;;14.50;96.10;;;;;;5094477;28;20101;-83
2021/08/17 05:10:33;;;;;;;4.75;3.05;;;14.50;96.10;;;;;;5103932;28;20062;-86
2021/08/17 05:13:00;;;;;;;6.45;2.13;;;14.50;96.10;;;;;;5092781;28;20052;-84
2021/08/17 05:15:26;;;;;;;4.53;2.03;;;14.50;96.10;;;;;;5085291;28;20428;-85
2021/08/17 05:17:51;;;;;;;5.22;2.03;;;14.50;96.20;;;;;;5083305;28;20044;-84
2021/08/17 05:20:17;;;;;;;5.70;1.88;;;14.50;96.00;;;;;;5090703;28;20048;-84
2021/08/17 05:22:43;;;;;;;9.38;2.70;;;14.60;96.10;;;;;;5090286;28;20044;-82
2021/08/17 05:25:10;;;;;;;3.83;2.10;;;14.60;96.10;;;;;;5088751;28;20060;-82
2021/08/17 05:27:36;;;;;;;3.85;2.10;;;14.60;95.90;;;;;;5102247;28;20086;-82
2021/08/17 05:30:01;;;;;;;5.43;2.45;;;14.60;95.80;;;;;;5097547;28;20528;-84
2021/08/17 05:32:27;;;;;;;8.50;2.90;;;14.70;95.90;;;;;;5097408;28;20127;-82
2021/08/17 05:34:52;;;;;;;3.97;2.60;;;14.70;95.80;;;;;;5100420;28;20043;-82
2021/08/17 05:37:18;;;;;;;4.65;2.00;;;14.70;95.70;;;;;;5110275;28;20039;-83
2021/08/17 05:39:44;;;;;;;2.28;1.70;;;14.70;95.70;;;;;;5102314;28;20032;-84
2021/08/17 05:42:10;;;;;;;6.68;2.50;;;14.70;95.80;;;;;;5101476;28;20043;-82
2021/08/17 05:44:37;;;;;;;3.38;1.88;;;14.80;95.80;;;;;;5125781;28;20460;-82
2021/08/17 05:47:03;;;;;;;4.45;1.92;;;14.80;95.90;;;;;;5105964;28;20040;-84
2021/08/17 05:49:28;;;;;;;4.15;1.92;;;14.90;95.80;;;;;;5102817;28;20043;-84
2021/08/17 05:51:54;;;;;;;3.22;1.60;;;14.90;95.70;;;;;;5104784;28;20040;-85
2021/08/17 05:54:19;;;;;;;4.55;2.00;;;15.00;95.40;;;;;;5091505;28;20075;-84
2021/08/17 05:56:45;;;;;;;17.05;3.00;;;15.10;95.40;;;;;;5100064;28;20390;-83
2021/08/17 05:59:10;;;;;;;5.03;2.17;;;15.10;95.30;;;;;;5107489;28;20107;-84
2021/08/17 06:01:36;;;;;;;9.88;3.33;;;15.20;95.00;;;;;;5094661;28;20031;-83
2021/08/17 06:04:02;;;;;;;8.32;2.30;;;15.20;95.10;;;;;;5089537;28;20071;-84
2021/08/17 06:06:28;;;;;;;5.18;1.80;;;15.20;95.10;;;;;;5088387;28;20097;-84
2021/08/17 06:08:53;;;;;;;6.82;1.83;;;15.20;94.80;;;;;;5080083;28;20044;-84
2021/08/17 06:11:19;;;;;;;7.75;1.85;;;15.20;94.70;;;;;;5091654;28;20036;-85
2021/08/17 06:13:44;;;;;;;4.82;1.77;;;15.30;94.60;;;;;;5085328;28;20654;-84
2021/08/17 06:16:10;;;;;;;3.35;1.40;;;15.40;94.80;;;;;;5083933;28;20261;-83
2021/08/17 06:18:35;;;;;;;3.45;1.80;;;15.40;94.60;;;;;;5108008;28;20130;-83
2021/08/17 06:21:01;;;;;;;4.88;1.88;;;15.50;94.50;;;;;;5088911;28;20083;-84
2021/08/17 06:23:26;;;;;;;4.60;2.00;;;15.60;94.40;;;;;;5084364;28;20040;-84
2021/08/17 06:25:52;;;;;;;4.55;1.40;;;15.60;94.30;;;;;;5090492;28;20040;-84
2021/08/17 06:28:17;;;;;;;9.32;2.25;;;15.60;94.20;;;;;;5083695;28;20425;-82
2021/08/17 06:30:43;;;;;;;7.60;1.95;;;15.70;94.10;;;;;;5085746;28;20020;-85
2021/08/17 06:33:08;;;;;;;6.80;2.20;;;15.70;93.80;;;;;;5093556;28;20130;-85
2021/08/17 06:35:34;;;;;;;5.15;2.47;;;15.70;94.20;;;;;;5092396;28;20040;-85
2021/08/17 06:37:59;;;;;;;5.30;2.05;;;15.70;94.10;;;;;;5090450;28;20075;-84
2021/08/17 06:40:26;;;;;;;4.75;2.17;;;15.70;94.10;;;;;;5079379;28;20090;-84
2021/08/17 06:42:52;;;;;;;7.28;1.88;;;15.60;94.30;;;;;;5083505;28;20036;-84
2021/08/17 06:45:18;;;;;;;6.05;2.13;;;15.60;94.10;;;;;;5088470;28;20743;-84
2021/08/17 06:47:49;;;;;;;6.72;2.47;;;15.60;94.10;;;;;;5092124;28;20032;-84
2021/08/17 06:50:14;;;;;;;5.93;2.22;;;15.60;94.10;;;;;;5089888;28;20040;-84
2021/08/17 06:52:40;;;;;;;11.63;2.83;;;15.60;94.20;;;;;;5094422;28;20098;-84
2021/08/17 06:55:06;;;;;;;7.40;2.13;;;15.60;94.00;;;;;;5090316;28;20352;-84
2021/08/17 06:57:33;;;;;;;5.07;2.10;;;15.70;94.00;;;;;;5093730;28;20055;-84
2021/08/17 06:59:58;;;;;;;7.60;1.70;;;15.60;94.40;;;;;;5102819;28;20105;-84
2021/08/17 07:02:24;;;;;;;3.58;1.60;;;15.70;94.10;;;;;;5085167;28;20047;-84
2021/08/17 07:04:49;;;;;;;7.00;1.77;;;15.70;94.30;;;;;;5085891;28;20436;-84
2021/08/17 07:07:15;;;;;;;5.45;2.00;;;15.80;93.70;;;;;;5089501;28;20041;-84
2021/08/17 07:09:40;;;;;;;5.65;2.00;;;15.80;93.70;;;;;;5099728;28;20632;-84
2021/08/17 07:12:06;;;;;;;6.05;1.67;;;15.90;93.40;;;;;;5094417;28;20105;-85
2021/08/17 07:14:32;;;;;;;3.20;1.67;;;15.80;93.60;;;;;;5101595;28;20037;-84
2021/08/17 07:16:57;;;;;;;7.32;1.42;;;15.80;93.40;;;;;;5092302;28;20043;-84
2021/08/17 07:19:23;;;;;;;4.88;2.15;;;15.80;93.50;;;;;;5087649;28;20130;-84
2021/08/17 07:21:48;;;;;;;4.43;1.50;;;15.80;93.40;;;;;;5097808;28;20044;-84
2021/08/17 07:24:14;;;;;;;7.82;2.53;;;15.80;93.50;;;;;;5099781;28;20031;-83
2021/08/17 07:26:39;;;;;;;5.18;1.60;;;15.80;93.40;;;;;;5097725;28;20032;-85
2021/08/17 07:29:05;;;;;;;9.32;2.08;;;15.70;93.60;;;;;;5093424;28;20139;-84
2021/08/17 07:31:34;;;;;;;3.63;1.67;;;15.80;93.40;;;;;;5088249;28;20117;-87
2021/08/17 07:34:02;;;;;;;3.75;1.70;;;15.80;93.40;;;;;;5076745;28;20115;-87
2021/08/17 07:36:28;;;;;;;4.45;1.70;;;15.90;93.40;;;;;;5078221;28;20051;-84
2021/08/17 07:38:53;;;;;;;5.18;1.48;;;15.90;93.00;;;;;;5112373;28;20044;-87
2021/08/17 07:41:19;;;;;;;5.30;1.58;;;15.90;93.10;;;;;;5101089;28;20081;-86
2021/08/17 07:43:44;;;;;;;4.53;1.45;;;16.00;93.10;;;;;;5107841;28;20039;-86
2021/08/17 07:46:10;;;;;;;4.57;1.42;;;16.00;92.50;;;;;;5100204;28;20043;-87
2021/08/17 07:48:35;;;;;;;8.27;2.17;;;16.10;92.70;;;;;;5100064;28;20044;-86
2021/08/17 07:51:01;;;;;;;5.55;1.70;;;16.20;92.30;;;;;;5097972;28;20044;-86
2021/08/17 07:53:27;;;;;;;3.88;1.75;;;16.20;92.50;;;;;;5107095;28;20047;-86
2021/08/17 07:55:53;;;;;;;7.50;2.10;;;16.30;93.00;;;;;;5097991;28;20036;-85
2021/08/17 07:58:19;;;;;;;4.80;1.73;;;16.30;92.50;;;;;;5097132;28;20416;-89
2021/08/17 08:00:44;;;;;;;6.78;2.28;;;16.40;92.20;;;;;;5096802;28;20040;-85
2021/08/17 08:03:10;;;;;;;7.88;1.67;;;16.50;92.30;;;;;;5109070;28;20028;-85
2021/08/17 08:05:36;;;;;;;3.88;1.38;;;16.60;91.70;;;;;;5105442;28;20309;-85
2021/08/17 08:08:02;;;;;;;5.22;1.65;;;16.60;91.90;;;;;;5097672;28;20036;-86
2021/08/17 08:10:28;;;;;;;2.70;1.17;;;16.80;91.90;;;;;;5116301;28;20040;-85
2021/08/17 08:12:53;;;;;;;5.70;1.48;;;16.80;91.60;;;;;;5101829;28;20072;-86
2021/08/17 08:15:19;;;;;;;6.00;1.60;;;16.90;91.20;;;;;;5094802;28;20063;-85
2021/08/17 08:17:55;;;;;;;5.70;2.25;;;17.00;90.80;;;;;;5096349;28;20323;-86
2021/08/17 08:20:20;;;;;;;5.78;1.67;;;17.10;90.70;;;;;;5113481;28;20124;-87
2021/08/17 08:22:46;;;;;;;8.50;1.58;;;17.10;90.60;;;;;;5118653;28;20083;-87
2021/08/17 08:25:12;;;;;;;6.20;1.88;;;17.10;90.50;;;;;;5108785;28;20062;-86
2021/08/17 08:27:38;;;;;;;5.53;1.92;;;17.10;90.30;;;;;;5100262;28;20071;-85
2021/08/17 08:30:06;;;;;;;3.28;1.50;;;17.10;90.50;;;;;;5102021;28;20063;-85
2021/08/17 08:32:32;;;;;;;5.10;1.77;;;17.00;90.50;;;;;;5101410;28;20036;-87
2021/08/17 08:34:57;;;;;;;4.22;1.75;;;17.00;90.40;;;;;;5117741;28;20035;-87
2021/08/17 08:37:23;;;;;;;4.57;1.33;;;17.00;90.30;;;;;;5117618;28;20039;-85
2021/08/17 08:39:48;;;;;;;5.05;1.83;;;16.90;90.40;;;;;;5115701;28;20046;-85
2021/08/17 08:42:14;;;;;;;6.15;2.63;;;16.90;90.50;;;;;;5110839;28;20570;-84
2021/08/17 08:44:39;;;;;;;3.20;1.45;;;16.90;90.40;;;;;;5085771;28;20383;-88
2021/08/17 08:47:05;;;;;;;6.05;1.73;;;17.00;90.10;;;;;;5117037;28;20036;-88
2021/08/17 08:49:33;;;;;;;2.38;1.38;;;16.80;90.00;;;;;;5088320;28;20048;-85
2021/08/17 08:52:00;;;;;;;2.85;1.25;;;16.70;90.20;;;;;;5083240;28;20044;-86
2021/08/17 08:54:25;;;;;;;4.50;1.50;;;16.80;90.00;;;;;;5098398;28;20039;-86
2021/08/17 08:56:51;;;;;;;2.58;1.13;;;16.80;90.10;;;;;;5093128;28;20040;-88
2021/08/17 08:59:16;;;;;;;5.78;1.65;;;16.80;89.60;;;;;;5102565;28;20642;-87
2021/08/17 09:01:46;;;;;;;3.33;1.27;;;16.80;90.50;;;;;;5100801;28;20067;-86
2021/08/17 09:04:15;;;;;;;3.20;1.52;;;16.80;89.20;;;;;;5092762;28;20040;-87
2021/08/17 09:06:55;;;;;;;7.85;1.52;;;16.80;89.90;;;;;;5091953;28;20037;-85
2021/08/17 09:09:21;;;;;;;4.93;1.25;;;16.90;89.60;;;;;;5103124;28;20040;-87
2021/08/17 09:11:49;;;;;;;4.00;1.00;;;17.00;87.10;;;;;;5100253;28;20074;-88
2021/08/17 09:14:33;;;;;;;5.35;1.65;;;17.00;87.00;;;;;;5089613;28;20047;-86
2021/08/17 09:17:04;;;;;;;2.72;1.17;;;17.10;88.10;;;;;;5092138;28;20046;-86
2021/08/17 09:19:33;;;;;;;2.25;1.05;;;17.10;86.40;;;;;;5087439;28;20052;-86
2021/08/17 09:22:15;;;;;;;5.55;1.50;;;17.20;87.10;;;;;;5082150;28;20123;-86
2021/08/17 09:24:44;;;;;;;4.63;1.38;;;17.30;86.70;;;;;;5097606;28;20039;-86
2021/08/17 09:27:16;;;;;;;7.18;1.35;;;17.30;86.10;;;;;;5104040;28;20279;-86
2021/08/17 09:29:47;;;;;;;3.97;1.60;;;17.30;85.90;;;;;;5107952;28;20044;-86
2021/08/17 09:32:14;;;;;;;6.07;1.58;;;17.50;85.10;;;;;;5105516;28;20103;-87
2021/08/17 09:34:41;;;;;;;4.03;1.42;;;17.50;84.10;;;;;;5100699;28;20093;-86
2021/08/17 09:37:09;;;;;;;4.65;1.23;;;17.60;83.70;;;;;;5094650;28;20031;-87
2021/08/17 09:39:40;;;;;;;7.25;1.20;;;17.60;84.00;;;;;;5097932;28;20038;-87
2021/08/17 09:42:08;;;;;;;3.17;1.45;;;17.80;83.30;;;;;;5110557;28;20343;-86
2021/08/17 09:44:33;;;;;;;4.47;1.38;;;17.80;82.20;;;;;;5099767;28;20039;-86
2021/08/17 09:46:59;;;;;;;3.95;1.58;;;17.90;82.60;;;;;;5104794;28;20032;-86
2021/08/17 09:49:27;;;;;;;4.78;1.73;;;18.00;82.40;;;;;;5094085;28;20411;-85
2021/08/17 09:51:54;;;;;;;3.67;1.45;;;18.00;83.90;;;;;;5112509;28;20079;-85
2021/08/17 09:54:25;;;;;;;7.97;1.33;;;18.10;82.90;;;;;;5115181;28;20035;-84
2021/08/17 09:57:02;;;;;;;6.22;1.65;;;18.20;82.80;;;;;;5102102;28;20032;-84
2021/08/17 09:59:29;;;;;;;4.05;1.60;;;18.30;82.10;;;;;;5098778;28;20067;-84
2021/08/17 10:01:56;;;;;;;2.97;1.17;;;18.40;81.90;;;;;;5098718;28;20385;-84
2021/08/17 10:04:22;;;;;;;9.05;1.85;;;18.50;81.00;;;;;;5097704;28;20227;-85
2021/08/17 10:06:50;;;;;;;4.55;1.90;;;18.70;80.60;;;;;;5094887;28;20032;-86
2021/08/17 10:09:17;;;;;;;7.25;1.63;;;19.00;78.50;;;;;;5110759;28;20698;-86
2021/08/17 10:11:43;;;;;;;3.08;1.33;;;19.20;77.10;;;;;;5094241;28;20587;-87
2021/08/17 10:14:15;;;;;;;3.20;1.80;;;19.30;76.50;;;;;;5083119;28;20149;-86
2021/08/17 10:16:42;;;;;;;4.47;1.98;;;19.30;76.90;;;;;;5110485;28;20043;-84
2021/08/17 10:19:09;;;;;;;3.10;1.20;;;19.30;76.80;;;;;;5112305;28;20117;-88
2021/08/17 10:21:37;;;;;;;3.78;1.08;;;19.30;76.10;;;;;;5097780;28;20083;-86
2021/08/17 10:24:42;;;;;;;5.38;1.55;;;19.10;77.60;;;;;;5102232;28;20043;-85
2021/08/17 10:27:26;;;;;;;4.50;1.35;;;19.10;77.30;;;;;;5085559;28;20100;-84
2021/08/17 10:30:06;;;;;;;2.65;1.20;;;18.90;78.00;;;;;;5095542;28;20032;-87
2021/08/17 10:32:46;;;;;;;10.02;2.80;;;18.80;77.80;;;;;;5094168;28;20035;-86
2021/08/17 10:35:27;;;;;;;7.43;1.73;;;18.90;78.80;;;;;;5094609;28;20405;-85
2021/08/17 10:38:12;;;;;;;5.65;1.80;;;19.10;79.50;;;;;;5098969;28;20155;-86
2021/08/17 10:40:50;;;;;;;6.20;1.52;;;19.20;76.30;;;;;;5086994;28;20289;-85
2021/08/17 10:43:21;;;;;;;6.47;1.75;;;19.30;77.60;;;;;;5098399;28;20040;-86
2021/08/17 10:46:13;;;;;;;2.88;1.13;;;19.40;74.60;;;;;;5099408;28;20309;-86
2021/08/17 10:48:45;;;;;;;5.07;1.00;;;19.40;75.30;;;;;;5097546;28;20031;-86
2021/08/17 10:51:23;;;;;;;4.22;1.30;;;19.40;75.00;;;;;;5113171;28;20128;-86
2021/08/17 10:54:03;;;;;;;1.85;1.10;;;19.40;74.80;;;;;;5115952;28;20499;-87
2021/08/17 10:56:34;;;;;;;6.90;2.10;;;19.40;75.40;;;;;;5101062;28;20047;-84
2021/08/17 10:59:00;;;;;;;4.68;1.20;;;19.50;74.30;;;;;;5077153;28;20044;-86
2021/08/17 11:01:34;;;;;;;2.28;1.13;;;19.50;74.80;;;;;;5091678;28;20046;-86
2021/08/17 11:04:11;;;;;;;4.75;1.25;;;19.70;74.80;;;;;;5110822;28;20040;-84
2021/08/17 11:06:48;;;;;;;3.15;0.88;;;19.80;73.60;;;;;;5082890;28;20120;-84
2021/08/17 11:09:30;;;;;;;4.15;1.25;;;19.70;74.80;;;;;;5096418;28;20035;-83
2021/08/17 11:12:09;;;;;;;4.30;1.13;;;19.80;72.50;;;;;;5098733;28;20024;-85
2021/08/17 11:14:36;;;;;;;7.85;1.48;;;19.90;74.30;;;;;;5085890;28;20111;-84
2021/08/17 11:17:22;;;;;;;4.03;1.05;;;19.90;70.80;;;;;;5097257;28;20429;-84
2021/08/17 11:19:49;;;;;;;3.25;1.08;;;20.00;72.10;;;;;;5097207;28;20119;-84
2021/08/17 11:22:25;;;;;;;6.03;1.77;;;20.00;72.10;;;;;;5096408;28;20130;-85
2021/08/17 11:24:53;;;;;;;3.28;0.80;;;20.10;72.00;;;;;;5110115;28;20036;-86
2021/08/17 11:27:23;;;;;;;4.70;2.22;;;20.10;69.90;;;;;;5099083;28;20047;-85
2021/08/17 11:29:56;;;;;;;2.53;1.27;;;20.10;70.30;;;;;;5096459;28;20491;-85
2021/08/17 11:32:26;;;;;;;;;;;20.20;70.60;;;;;;5100168;28;20441;-84
2021/08/17 11:34:52;;;;;;;3.10;1.33;;;20.30;69.70;;;;;;5116860;28;19922;-84
2021/08/17 11:37:18;;;;;;;2.05;1.27;;;20.40;68.20;;;;;;5105749;28;20473;-84
2021/08/17 11:39:49;;;;;;;7.25;1.27;;;20.30;67.50;;;;;;5104155;28;20055;-84
2021/08/17 11:42:24;;;;;;;2.47;0.80;;;20.20;69.70;;;;;;5106350;28;20082;-83
2021/08/17 11:44:55;;;;;;;3.42;1.02;;;20.20;67.90;;;;;;5116839;28;20044;-83
2021/08/17 11:47:21;;;;;;;3.63;1.20;;;20.10;67.60;;;;;;5096260;28;20101;-83
2021/08/17 11:49:52;;;;;;;4.30;1.73;;;20.10;68.20;;;;;;5095438;28;20042;-84
2021/08/17 11:52:24;;;;;;;2.47;1.10;;;20.10;69.90;;;;;;5096862;28;20112;-84
2021/08/17 11:55:04;;;;;;;3.75;1.30;;;20.20;69.90;;;;;;5095641;28;20072;-84
2021/08/17 11:57:32;;;;;;;5.60;1.40;;;20.20;70.00;;;;;;5096594;28;20036;-84
2021/08/17 12:00:16;;;;;;;6.20;1.42;;;20.30;69.40;;;;;;5097889;28;20297;-84
2021/08/17 12:02:43;;;;;;;11.43;1.65;;;20.40;69.00;;;;;;5096683;28;20109;-84
2021/08/17 12:05:11;;;;;;;4.28;1.00;;;20.40;69.00;;;;;;5102068;28;20338;-83
2021/08/17 12:07:37;;;;;;;6.68;1.20;;;20.50;67.60;;;;;;5110210;28;20082;-83
2021/08/17 12:10:07;;;;;;;6.22;1.50;;;20.50;68.10;;;;;;5107413;28;20040;-85
2021/08/17 12:13:05;;;;;;;5.03;1.45;;;20.60;68.40;;;;;;5084512;28;20040;-83
2021/08/17 12:15:45;;;;;;;4.75;1.15;;;20.80;70.70;;;;;;5120067;28;20043;-84
2021/08/17 12:18:16;;;;;;;4.80;1.50;;;21.00;67.30;;;;;;5105853;28;20039;-84
2021/08/17 12:20:56;;;;;;;4.28;1.35;;;21.10;67.00;;;;;;5097113;28;20166;-83
2021/08/17 12:23:34;;;;;;;4.50;1.40;;;21.20;67.50;;;;;;5110674;28;20052;-84
2021/08/17 12:26:10;;;;;;;3.65;1.10;;;21.20;66.20;;;;;;5119571;28;20050;-83
2021/08/17 12:28:36;;;;;;;2.78;1.17;;;21.10;66.60;;;;;;5116842;28;20027;-84
2021/08/17 12:31:20;;;;;;;4.05;1.27;;;21.10;67.80;;;;;;5087173;28;20036;-84
2021/08/17 12:33:55;;;;;;;3.25;1.60;;;21.10;65.00;;;;;;5116375;28;20127;-84
2021/08/17 12:36:24;;;;;;;5.38;1.63;;;21.00;64.60;;;;;;5108917;28;20333;-85
2021/08/17 12:38:50;;;;;;;2.40;1.17;;;20.90;65.80;;;;;;5095204;28;20043;-83
2021/08/17 12:41:34;;;;;;;4.32;1.40;;;20.90;67.30;;;;;;5096158;28;20048;-83
2021/08/17 12:44:00;;;;;;;4.93;1.42;;;20.70;67.40;;;;;;5113403;28;20123;-83
2021/08/17 12:46:25;;;;;;;4.55;1.30;;;20.70;66.20;;;;;;5116412;28;20366;-83
2021/08/17 12:48:51;;;;;;;2.40;1.05;;;20.70;67.70;;;;;;5122774;28;20099;-83
2021/08/17 12:51:25;;;;;;;4.15;2.00;;;20.80;67.80;;;;;;5123573;28;20031;-86